createdAt,value
2022-12-27T19:36:55.549Z,5.70
2022-12-27T19:39:36.312Z,5.76
2022-12-27T19:42:07.167Z,5.75
2022-12-27T19:44:34.356Z,5.70
2022-12-27T19:47:01.172Z,5.74
2022-12-27T19:49:44.758Z,5.60
2022-12-27T19:52:26.196Z,5.60
2022-12-27T19:55:02.348Z,5.48
2022-12-27T19:57:29.265Z,5.63
2022-12-27T19:59:56.283Z,5.62
2022-12-27T20:02:23.561Z,5.62
2022-12-27T20:04:50.527Z,5.68
2022-12-27T20:07:22.754Z,5.62
2022-12-27T20:09:50.146Z,5.58
2022-12-27T20:12:17.208Z,5.54
2022-12-27T20:14:44.046Z,5.62
2022-12-27T20:17:10.862Z,5.71
2022-12-27T20:19:37.652Z,5.68
2022-12-27T20:22:05.907Z,5.60
2022-12-27T20:24:34.853Z,5.61
2022-12-27T20:27:01.746Z,5.61
2022-12-27T20:29:30.213Z,5.64
2022-12-27T20:31:58.447Z,5.56
2022-12-27T20:34:25.802Z,5.46
2022-12-27T20:36:55.045Z,5.53
2022-12-27T20:39:22.131Z,5.42
2022-12-27T20:41:49.016Z,5.45
2022-12-27T20:44:16.053Z,5.55
2022-12-27T20:46:44.199Z,5.38
2022-12-27T20:49:11.023Z,5.40
2022-12-27T20:51:38.125Z,5.51
2022-12-27T20:54:05.340Z,5.28
2022-12-27T20:56:32.470Z,5.31
2022-12-27T20:58:59.411Z,5.24
2022-12-27T21:01:26.827Z,5.26
2022-12-27T21:03:55.988Z,5.23
2022-12-27T21:06:27.401Z,5.28
2022-12-27T21:08:57.136Z,5.19
2022-12-27T21:11:30.243Z,5.17
2022-12-27T21:13:57.529Z,5.30
2022-12-27T21:16:28.602Z,5.26
2022-12-27T21:18:56.821Z,5.14
2022-12-27T21:21:28.644Z,5.23
2022-12-27T21:23:57.683Z,5.27
2022-12-27T21:26:29.419Z,5.23
2022-12-27T21:28:57.288Z,5.23
2022-12-27T21:31:24.472Z,4.81
2022-12-27T21:33:51.446Z,4.95
2022-12-27T21:36:22.036Z,4.79
2022-12-27T21:38:49.451Z,4.84
2022-12-27T21:41:27.431Z,4.97
2022-12-27T21:43:54.441Z,4.97
2022-12-27T21:46:28.151Z,4.83
2022-12-27T21:49:07.346Z,4.87
2022-12-27T21:51:36.735Z,4.84
2022-12-27T21:54:04.332Z,4.88
2022-12-27T21:56:31.611Z,4.67
2022-12-27T21:58:59.738Z,4.69
2022-12-27T22:01:30.160Z,4.53
2022-12-27T22:03:59.318Z,4.62
2022-12-27T22:06:37.820Z,4.43
2022-12-27T22:09:10.327Z,4.35
2022-12-27T22:11:39.381Z,4.45
2022-12-27T22:14:06.937Z,4.35
2022-12-27T22:16:39.161Z,4.27
2022-12-27T22:19:09.167Z,4.41
2022-12-27T22:21:37.926Z,4.54
2022-12-27T22:24:05.561Z,4.29
2022-12-27T22:26:37.195Z,4.28
2022-12-27T22:29:05.577Z,4.26
2022-12-27T22:31:38.037Z,4.26
2022-12-27T22:34:06.004Z,4.29
2022-12-27T22:36:34.013Z,4.34
2022-12-27T22:39:01.790Z,4.25
2022-12-27T22:41:34.782Z,4.30
2022-12-27T22:44:06.080Z,4.44
2022-12-27T22:49:20.719Z,4.37
2022-12-27T22:51:47.596Z,4.19
2022-12-27T22:54:14.378Z,4.27
2022-12-27T22:56:42.682Z,4.09
2022-12-27T22:59:12.538Z,4.15
2022-12-27T23:01:41.271Z,4.28
2022-12-27T23:04:11.609Z,4.15
2022-12-27T23:06:40.052Z,4.08
2022-12-27T23:09:07.810Z,4.01
2022-12-27T23:11:38.669Z,4.00
2022-12-27T23:14:11.699Z,4.04
2022-12-27T23:16:42.867Z,3.96
2022-12-27T23:19:10.689Z,3.84
2022-12-27T23:21:37.855Z,3.91
2022-12-27T23:24:05.591Z,4.08
2022-12-27T23:26:32.729Z,4.00
2022-12-27T23:28:59.742Z,4.06
2022-12-27T23:31:27.523Z,4.09
2022-12-27T23:33:54.881Z,3.97
2022-12-27T23:36:22.461Z,4.10
2022-12-27T23:38:49.797Z,4.10
2022-12-27T23:41:23.228Z,4.14
2022-12-27T23:43:54.590Z,4.05
2022-12-27T23:46:29.369Z,4.15
2022-12-27T23:49:02.086Z,4.09
2022-12-27T23:51:30.518Z,4.05
2022-12-27T23:53:57.754Z,4.06
2022-12-27T23:56:31.334Z,4.11
2022-12-27T23:59:01.176Z,3.95
